Time;durP1;ratioP1;P1;durP2;ratioP2;P2;SDS_P1;SDS_P2;PMS_P1;PMS_P2;Temp;Humidity;BMP_temperature;BMP_pressure;BME280_temperature;BME280_humidity;BME280_pressure;Samples;Min_cycle;Max_cycle;Signal;HPM_P1;HPM_P2
2022/04/05 00:01:25;;;;;;;10.13;8.93;;;;;;;;;;4993205;28;20243;-55
2022/04/05 00:03:51;;;;;;;10.77;9.77;;;;;;;;;;4985434;28;20281;-56
2022/04/05 00:06:17;;;;;;;10.50;9.60;;;;;;;;;;4987198;28;20568;-54
2022/04/05 00:08:43;;;;;;;10.43;9.53;;;;;;;;;;4986223;28;20205;-55
2022/04/05 00:11:09;;;;;;;11.10;10.20;;;;;;;;;;4981376;28;20189;-55
2022/04/05 00:13:35;;;;;;;10.57;9.67;;;;;;;;;;4985419;28;20189;-55
2022/04/05 00:16:01;;;;;;;11.90;10.80;;;;;;;;;;4981536;28;20687;-55
2022/04/05 00:18:27;;;;;;;11.60;10.60;;;;;;;;;;4986606;28;20601;-56
2022/04/05 00:20:53;;;;;;;10.37;9.47;;;;;;;;;;4991490;28;20228;-55
2022/04/05 00:23:19;;;;;;;11.30;10.30;;;;;;;;;;5001152;28;20558;-55
2022/04/05 00:25:45;;;;;;;10.93;9.80;;;;;;;;;;4995596;28;20721;-55
2022/04/05 00:28:11;;;;;;;10.60;9.70;;;;;;;;;;4989827;28;20647;-56
2022/04/05 00:30:37;;;;;;;10.77;9.67;;;;;;;;;;4989518;28;20559;-56
2022/04/05 00:33:03;;;;;;;10.30;9.40;;;;;;;;;;4993120;28;21013;-54
2022/04/05 00:35:29;;;;;;;10.17;9.17;;;;;;;;;;4992333;28;20193;-55
2022/04/05 00:37:55;;;;;;;10.00;9.10;;;;;;;;;;4995625;28;20286;-55
2022/04/05 00:40:21;;;;;;;10.53;9.63;;;;;;;;;;4997131;28;20583;-55
2022/04/05 00:42:47;;;;;;;9.77;8.97;;;;;;;;;;4990944;28;20207;-55
2022/04/05 00:45:16;;;;;;;11.13;10.20;;;;;;;;;;4983989;28;20194;-55
2022/04/05 00:47:44;;;;;;;10.97;10.07;;;;;;;;;;5006534;28;20197;-55
2022/04/05 00:50:10;;;;;;;10.37;9.47;;;;;;;;;;4994174;28;20579;-55
2022/04/05 00:52:36;;;;;;;10.20;9.30;;;;;;;;;;4998866;28;20193;-54
2022/04/05 00:55:02;;;;;;;10.13;9.23;;;;;;;;;;5001856;28;20201;-55
2022/04/05 00:57:28;;;;;;;10.00;9.10;;;;;;;;;;4996737;28;20196;-56
2022/04/05 00:59:55;;;;;;;10.83;9.37;;;;;;;;;;5002937;28;20606;-55
2022/04/05 01:02:21;;;;;;;10.50;9.50;;;;;;;;;;4999864;28;20834;-55
2022/04/05 01:04:48;;;;;;;10.60;9.60;;;;;;;;;;5002512;28;20200;-55
2022/04/05 01:07:15;;;;;;;10.17;9.17;;;;;;;;;;5002691;28;20260;-55
2022/04/05 01:09:41;;;;;;;10.40;9.43;;;;;;;;;;5005475;28;20213;-55
2022/04/05 01:12:07;;;;;;;10.77;9.67;;;;;;;;;;5006753;28;20207;-55
2022/04/05 01:14:33;;;;;;;10.67;9.67;;;;;;;;;;4994891;28;20193;-56
2022/04/05 01:16:59;;;;;;;10.70;9.70;;;;;;;;;;4990633;28;20192;-55
2022/04/05 01:19:25;;;;;;;12.20;9.77;;;;;;;;;;4992375;28;20280;-56
2022/04/05 01:21:51;;;;;;;11.73;10.50;;;;;;;;;;4990541;28;20205;-56
2022/04/05 01:24:17;;;;;;;11.43;10.40;;;;;;;;;;4997486;28;20671;-56
2022/04/05 01:26:47;;;;;;;12.30;11.10;;;;;;;;;;4998134;28;20771;-56
2022/04/05 01:29:13;;;;;;;12.97;11.67;;;;;;;;;;5006565;28;20213;-56
2022/04/05 01:31:41;;;;;;;12.80;11.50;;;;;;;;;;4995798;28;21628;-56
2022/04/05 01:34:07;;;;;;;12.17;10.87;;;;;;;;;;5007505;28;20186;-55
2022/04/05 01:36:34;;;;;;;14.93;11.70;;;;;;;;;;5002818;28;20238;-55
2022/04/05 01:39:00;;;;;;;13.03;11.67;;;;;;;;;;5005658;28;20573;-56
2022/04/05 01:41:26;;;;;;;13.57;11.53;;;;;;;;;;5000744;28;20189;-56
2022/04/05 01:43:52;;;;;;;14.33;12.83;;;;;;;;;;5002345;28;20228;-56
2022/04/05 01:46:18;;;;;;;16.30;12.70;;;;;;;;;;4993370;28;20201;-56
2022/04/05 01:48:43;;;;;;;14.97;13.43;;;;;;;;;;4994093;28;20214;-54
2022/04/05 01:51:09;;;;;;;16.43;13.83;;;;;;;;;;4996330;28;20621;-56
2022/04/05 01:53:35;;;;;;;15.40;12.77;;;;;;;;;;4985311;28;20201;-55
2022/04/05 01:56:01;;;;;;;14.07;12.57;;;;;;;;;;4989682;28;20197;-56
2022/04/05 01:58:27;;;;;;;14.70;12.67;;;;;;;;;;4991352;28;20281;-56
2022/04/05 02:00:54;;;;;;;14.30;12.70;;;;;;;;;;4987949;28;20196;-56
2022/04/05 02:03:20;;;;;;;14.10;12.57;;;;;;;;;;4987484;28;20247;-55
2022/04/05 02:05:48;;;;;;;14.50;13.00;;;;;;;;;;4987334;28;20197;-56
2022/04/05 02:08:14;;;;;;;14.77;13.27;;;;;;;;;;4993769;28;20203;-55
2022/04/05 02:10:40;;;;;;;14.43;12.57;;;;;;;;;;4990586;28;20655;-56
2022/04/05 02:13:08;;;;;;;14.43;12.93;;;;;;;;;;4999111;28;20697;-56
2022/04/05 02:15:34;;;;;;;14.40;13.00;;;;;;;;;;4999379;28;20283;-56
2022/04/05 02:18:00;;;;;;;14.70;13.27;;;;;;;;;;4995782;28;20193;-56
2022/04/05 02:20:26;;;;;;;14.07;12.67;;;;;;;;;;5003408;28;20246;-55
2022/04/05 02:22:52;;;;;;;15.20;13.60;;;;;;;;;;4998604;28;20780;-56
2022/04/05 02:25:18;;;;;;;13.90;12.40;;;;;;;;;;5002373;28;20773;-56
2022/04/05 02:27:45;;;;;;;14.13;12.17;;;;;;;;;;4989504;28;20241;-55
2022/04/05 02:30:11;;;;;;;14.47;13.03;;;;;;;;;;4992667;28;20610;-56
2022/04/05 02:32:37;;;;;;;14.33;12.93;;;;;;;;;;4998535;28;20214;-56
2022/04/05 02:35:03;;;;;;;14.13;12.70;;;;;;;;;;4999615;28;20205;-56
2022/04/05 02:37:29;;;;;;;14.50;13.00;;;;;;;;;;4994183;28;20196;-55
2022/04/05 02:39:55;;;;;;;16.57;13.60;;;;;;;;;;4996252;28;20557;-56
2022/04/05 02:42:21;;;;;;;13.33;12.03;;;;;;;;;;4993598;28;20197;-55
2022/04/05 02:44:47;;;;;;;13.87;12.37;;;;;;;;;;4995253;28;20792;-56
2022/04/05 02:47:15;;;;;;;14.50;13.00;;;;;;;;;;4995503;28;20208;-56
2022/04/05 02:49:41;;;;;;;14.00;12.63;;;;;;;;;;4997911;28;20721;-55
2022/04/05 02:52:07;;;;;;;14.07;12.67;;;;;;;;;;4987454;28;20272;-56
2022/04/05 02:54:33;;;;;;;14.10;12.67;;;;;;;;;;4990963;28;20279;-56
2022/04/05 02:56:59;;;;;;;14.33;12.83;;;;;;;;;;4990155;28;20193;-56
2022/04/05 02:59:24;;;;;;;14.60;13.10;;;;;;;;;;4989538;28;20302;-56
2022/04/05 03:01:50;;;;;;;13.97;12.57;;;;;;;;;;4986181;28;21769;-56
2022/04/05 03:04:16;;;;;;;15.20;13.23;;;;;;;;;;4992902;28;20197;-56
2022/04/05 03:06:42;;;;;;;15.73;13.20;;;;;;;;;;4984240;28;20214;-56
2022/04/05 03:09:08;;;;;;;14.57;13.07;;;;;;;;;;4993020;28;20255;-56
2022/04/05 03:11:34;;;;;;;13.10;11.80;;;;;;;;;;4988183;28;20229;-55
2022/04/05 03:14:00;;;;;;;15.67;12.90;;;;;;;;;;4990169;28;20190;-56
2022/04/05 03:16:26;;;;;;;14.27;12.77;;;;;;;;;;4988785;28;20647;-56
2022/04/05 03:18:53;;;;;;;14.63;13.13;;;;;;;;;;4985947;28;20330;-56
2022/04/05 03:21:19;;;;;;;13.40;12.07;;;;;;;;;;4993191;28;20291;-56
2022/04/05 03:23:45;;;;;;;13.53;12.23;;;;;;;;;;4991616;28;20190;-55
2022/04/05 03:26:11;;;;;;;13.83;12.43;;;;;;;;;;4999750;28;20678;-55
2022/04/05 03:28:37;;;;;;;13.53;12.23;;;;;;;;;;4993674;28;20674;-56
2022/04/05 03:31:03;;;;;;;15.13;12.73;;;;;;;;;;4984552;28;20181;-56
2022/04/05 03:33:30;;;;;;;12.93;11.63;;;;;;;;;;4999127;28;20189;-55
2022/04/05 03:35:56;;;;;;;13.07;11.67;;;;;;;;;;4996772;28;20189;-56
2022/04/05 03:38:22;;;;;;;14.07;12.07;;;;;;;;;;4991908;28;20255;-55
2022/04/05 03:40:48;;;;;;;12.33;11.03;;;;;;;;;;4997239;28;20729;-56
2022/04/05 03:43:14;;;;;;;12.70;11.40;;;;;;;;;;4991661;28;20185;-56
2022/04/05 03:45:40;;;;;;;12.73;11.40;;;;;;;;;;4983784;28;20668;-55
2022/04/05 03:48:06;;;;;;;12.23;11.03;;;;;;;;;;4982849;28;20646;-56
2022/04/05 03:50:32;;;;;;;12.13;10.93;;;;;;;;;;4986091;28;20286;-56
2022/04/05 03:52:59;;;;;;;12.87;11.43;;;;;;;;;;4986590;28;20256;-55
2022/04/05 03:55:25;;;;;;;13.03;11.70;;;;;;;;;;4986654;28;20725;-56
2022/04/05 03:57:51;;;;;;;13.03;11.63;;;;;;;;;;4991943;28;20205;-56
2022/04/05 04:00:17;;;;;;;14.90;12.77;;;;;;;;;;4995079;28;20190;-56
2022/04/05 04:02:43;;;;;;;13.03;11.73;;;;;;;;;;4994740;28;20190;-56
2022/04/05 04:05:09;;;;;;;13.50;12.10;;;;;;;;;;5000344;28;20189;-56
2022/04/05 04:07:41;;;;;;;13.63;12.20;;;;;;;;;;4991857;28;20232;-56
2022/04/05 04:10:08;;;;;;;14.43;12.93;;;;;;;;;;4984115;28;20209;-56
2022/04/05 04:12:34;;;;;;;13.53;12.13;;;;;;;;;;4982850;28;20201;-55
2022/04/05 04:15:00;;;;;;;13.60;12.20;;;;;;;;;;4989702;28;20638;-56
2022/04/05 04:17:26;;;;;;;13.77;12.33;;;;;;;;;;4981320;28;20224;-56
2022/04/05 04:19:52;;;;;;;14.03;12.63;;;;;;;;;;4983792;28;20247;-55
2022/04/05 04:22:18;;;;;;;14.80;13.30;;;;;;;;;;4993833;28;20193;-56
2022/04/05 04:24:44;;;;;;;15.17;13.63;;;;;;;;;;4987366;28;20197;-56
2022/04/05 04:27:13;;;;;;;16.43;14.73;;;;;;;;;;4992828;28;20287;-56
2022/04/05 04:29:39;;;;;;;16.00;14.30;;;;;;;;;;4997128;28;20213;-56
2022/04/05 04:32:05;;;;;;;16.00;14.40;;;;;;;;;;4988022;28;20567;-56
2022/04/05 04:34:31;;;;;;;17.73;15.17;;;;;;;;;;4989565;28;20247;-56
2022/04/05 04:36:57;;;;;;;16.57;14.27;;;;;;;;;;4989675;28;20201;-56
2022/04/05 04:39:23;;;;;;;16.50;14.80;;;;;;;;;;5001505;28;20195;-55
2022/04/05 04:41:49;;;;;;;19.10;16.07;;;;;;;;;;4989977;28;20625;-56
2022/04/05 04:44:15;;;;;;;18.90;15.20;;;;;;;;;;5000786;28;20202;-56
2022/04/05 04:46:43;;;;;;;22.13;17.47;;;;;;;;;;4993721;28;20273;-56
2022/04/05 04:49:09;;;;;;;20.60;16.77;;;;;;;;;;4995095;28;20364;-56
2022/04/05 04:51:35;;;;;;;21.90;17.27;;;;;;;;;;5001182;28;20300;-56
2022/04/05 04:54:01;;;;;;;19.70;17.57;;;;;;;;;;5002564;28;25317;-56
2022/04/05 04:56:27;;;;;;;20.37;18.17;;;;;;;;;;5006510;28;20185;-56
2022/04/05 04:58:53;;;;;;;21.83;18.13;;;;;;;;;;4998927;28;20828;-55
2022/04/05 05:01:19;;;;;;;20.57;18.23;;;;;;;;;;5000324;28;20193;-56
2022/04/05 05:03:45;;;;;;;21.37;19.07;;;;;;;;;;4997321;28;20742;-56
2022/04/05 05:06:11;;;;;;;23.33;19.60;;;;;;;;;;4995391;28;21379;-56
2022/04/05 05:08:37;;;;;;;21.83;19.30;;;;;;;;;;4995799;28;20764;-56
2022/04/05 05:11:03;;;;;;;24.13;19.87;;;;;;;;;;4996732;28;20189;-56
2022/04/05 05:13:31;;;;;;;23.60;19.17;;;;;;;;;;4987891;28;20197;-56
2022/04/05 05:15:57;;;;;;;20.97;18.70;;;;;;;;;;5001267;28;20185;-55
2022/04/05 05:18:23;;;;;;;22.57;19.10;;;;;;;;;;4985291;28;20693;-55
2022/04/05 05:20:49;;;;;;;21.73;17.93;;;;;;;;;;5002613;28;20197;-55
2022/04/05 05:23:15;;;;;;;20.80;18.57;;;;;;;;;;5002285;28;20204;-56
2022/04/05 05:25:41;;;;;;;22.00;19.07;;;;;;;;;;4997947;28;20747;-55
2022/04/05 05:28:07;;;;;;;24.47;19.93;;;;;;;;;;5004593;28;20828;-56
2022/04/05 05:30:33;;;;;;;23.10;19.30;;;;;;;;;;5004984;28;20225;-55
2022/04/05 05:32:59;;;;;;;22.57;19.23;;;;;;;;;;5007359;28;20295;-55
2022/04/05 05:35:25;;;;;;;24.03;19.40;;;;;;;;;;5007576;28;20275;-56
2022/04/05 05:37:51;;;;;;;23.10;19.53;;;;;;;;;;5003719;28;20638;-56
2022/04/05 05:40:17;;;;;;;22.37;19.83;;;;;;;;;;5006938;28;20327;-56
2022/04/05 05:42:47;;;;;;;23.13;19.13;;;;;;;;;;5008142;28;20193;-56
2022/04/05 05:45:14;;;;;;;22.33;19.63;;;;;;;;;;5003222;28;20764;-55
2022/04/05 05:47:39;;;;;;;21.07;18.80;;;;;;;;;;5006112;28;20232;-56
2022/04/05 05:50:06;;;;;;;22.03;18.37;;;;;;;;;;5002064;28;20232;-56
2022/04/05 05:52:32;;;;;;;20.80;18.07;;;;;;;;;;5004884;28;20185;-56
2022/04/05 05:54:58;;;;;;;21.40;18.20;;;;;;;;;;5008006;28;20239;-56
2022/04/05 05:57:24;;;;;;;21.67;17.70;;;;;;;;;;5009370;28;20248;-56
2022/04/05 05:59:50;;;;;;;21.50;18.50;;;;;;;;;;5003894;28;20193;-55
2022/04/05 06:02:16;;;;;;;19.10;16.67;;;;;;;;;;5005780;28;20199;-54
2022/04/05 06:04:42;;;;;;;18.73;16.73;;;;;;;;;;5001420;28;20189;-56
2022/04/05 06:07:09;;;;;;;19.50;17.40;;;;;;;;;;5000789;28;20209;-56
2022/04/05 06:09:35;;;;;;;19.30;17.20;;;;;;;;;;5006912;28;20215;-54
2022/04/05 06:12:01;;;;;;;18.60;16.70;;;;;;;;;;5002424;28;20639;-56
2022/04/05 06:14:27;;;;;;;18.53;16.53;;;;;;;;;;5004367;28;20695;-56
2022/04/05 06:16:53;;;;;;;20.17;17.13;;;;;;;;;;4999842;28;20194;-56
2022/04/05 06:19:19;;;;;;;20.10;18.00;;;;;;;;;;5000914;28;20193;-55
2022/04/05 06:21:45;;;;;;;19.23;17.23;;;;;;;;;;5001090;28;20185;-56
2022/04/05 06:24:11;;;;;;;20.73;17.93;;;;;;;;;;5002086;28;20200;-56
2022/04/05 06:26:37;;;;;;;22.50;18.23;;;;;;;;;;5003795;28;20677;-55
2022/04/05 06:29:03;;;;;;;22.30;19.90;;;;;;;;;;5007003;28;20279;-56
2022/04/05 06:31:29;;;;;;;19.00;17.00;;;;;;;;;;4996811;28;20609;-56
2022/04/05 06:33:57;;;;;;;21.90;17.37;;;;;;;;;;5004808;28;20224;-56
2022/04/05 06:36:23;;;;;;;20.33;17.67;;;;;;;;;;5000449;28;20281;-55
2022/04/05 06:38:49;;;;;;;18.90;17.00;;;;;;;;;;4999978;28;20197;-56
2022/04/05 06:41:14;;;;;;;18.27;16.20;;;;;;;;;;5006699;28;20208;-56
2022/04/05 06:43:40;;;;;;;17.67;15.80;;;;;;;;;;5001569;28;20198;-55
2022/04/05 06:46:06;;;;;;;18.77;16.77;;;;;;;;;;5006709;28;20950;-56
2022/04/05 06:48:32;;;;;;;18.40;15.77;;;;;;;;;;5000525;28;20224;-56
2022/04/05 06:50:58;;;;;;;16.57;14.77;;;;;;;;;;5000098;28;20284;-56
2022/04/05 06:53:24;;;;;;;16.07;14.37;;;;;;;;;;4997299;28;20190;-56
2022/04/05 06:55:50;;;;;;;15.83;14.20;;;;;;;;;;5005127;28;20189;-56
2022/04/05 06:58:16;;;;;;;17.17;12.87;;;;;;;;;;5002117;28;20199;-56
2022/04/05 07:00:42;;;;;;;13.90;12.47;;;;;;;;;;5004889;28;20225;-56
2022/04/05 07:03:08;;;;;;;13.77;12.37;;;;;;;;;;5000407;28;20765;-55
2022/04/05 07:05:34;;;;;;;15.77;12.43;;;;;;;;;;5003068;28;20198;-56
2022/04/05 07:08:01;;;;;;;12.87;11.57;;;;;;;;;;5009769;28;20215;-56
2022/04/05 07:10:27;;;;;;;14.10;12.23;;;;;;;;;;5010323;28;20315;-56
2022/04/05 07:12:53;;;;;;;12.30;11.10;;;;;;;;;;5011136;28;20650;-55
2022/04/05 07:15:19;;;;;;;12.57;11.27;;;;;;;;;;5009406;28;20911;-56
2022/04/05 07:17:45;;;;;;;11.63;10.53;;;;;;;;;;5008855;28;20197;-56
2022/04/05 07:20:11;;;;;;;11.97;10.60;;;;;;;;;;5003223;28;20284;-56
2022/04/05 07:22:37;;;;;;;11.70;10.53;;;;;;;;;;4993191;28;20205;-55
2022/04/05 07:25:03;;;;;;;13.83;11.23;;;;;;;;;;5001083;28;20194;-56
2022/04/05 07:27:29;;;;;;;11.93;10.60;;;;;;;;;;5010221;28;20236;-56
2022/04/05 07:29:55;;;;;;;11.40;10.30;;;;;;;;;;5001584;28;20860;-56
2022/04/05 07:32:21;;;;;;;11.60;10.50;;;;;;;;;;5005520;28;20185;-56
2022/04/05 07:34:47;;;;;;;10.47;9.47;;;;;;;;;;5010297;28;20207;-56
2022/04/05 07:37:13;;;;;;;10.70;9.70;;;;;;;;;;5013706;28;20194;-56
2022/04/05 07:39:40;;;;;;;11.10;9.97;;;;;;;;;;5011165;28;20219;-56
2022/04/05 07:42:07;;;;;;;9.73;8.73;;;;;;;;;;5011369;28;20556;-56
2022/04/05 07:44:33;;;;;;;10.10;8.93;;;;;;;;;;5001403;28;20201;-56
2022/04/05 07:46:59;;;;;;;10.60;9.60;;;;;;;;;;5005330;28;20221;-56
2022/04/05 07:49:25;;;;;;;10.37;9.40;;;;;;;;;;5004029;28;20296;-55
2022/04/05 07:51:51;;;;;;;11.10;9.70;;;;;;;;;;5002655;28;20224;-55
2022/04/05 07:54:17;;;;;;;10.80;9.80;;;;;;;;;;5002251;28;20250;-55
2022/04/05 07:56:43;;;;;;;11.00;10.00;;;;;;;;;;5003714;28;20212;-56
2022/04/05 07:59:09;;;;;;;11.63;10.53;;;;;;;;;;4998486;28;20189;-56
2022/04/05 08:01:35;;;;;;;12.20;10.80;;;;;;;;;;4996203;28;21529;-56
2022/04/05 08:04:01;;;;;;;11.90;10.80;;;;;;;;;;4992156;28;20202;-56
2022/04/05 08:06:28;;;;;;;12.07;10.90;;;;;;;;;;4992724;28;20206;-56
2022/04/05 08:08:54;;;;;;;11.47;10.37;;;;;;;;;;4999070;28;20209;-56
2022/04/05 08:11:20;;;;;;;12.67;11.33;;;;;;;;;;5007375;28;20194;-56
2022/04/05 08:13:46;;;;;;;11.40;10.37;;;;;;;;;;5013091;28;20182;-56
2022/04/05 08:16:12;;;;;;;12.30;11.20;;;;;;;;;;5010683;28;20227;-56
2022/04/05 08:18:38;;;;;;;12.63;11.53;;;;;;;;;;4999953;28;20201;-56
2022/04/05 08:21:04;;;;;;;12.10;10.93;;;;;;;;;;5002827;28;20197;-55
2022/04/05 08:23:30;;;;;;;13.33;12.03;;;;;;;;;;4998725;28;20450;-55
2022/04/05 08:25:56;;;;;;;13.13;11.90;;;;;;;;;;5000500;28;20999;-56
2022/04/05 08:28:22;;;;;;;13.30;12.00;;;;;;;;;;4998182;28;20298;-56
2022/04/05 08:30:48;;;;;;;13.43;12.27;;;;;;;;;;5001088;28;20609;-56
2022/04/05 08:33:14;;;;;;;13.70;12.40;;;;;;;;;;5001270;28;21424;-56
2022/04/05 08:35:40;;;;;;;17.43;12.50;;;;;;;;;;5005152;28;20268;-56
2022/04/05 08:38:07;;;;;;;14.40;13.13;;;;;;;;;;5001712;28;20189;-55
2022/04/05 08:40:33;;;;;;;13.63;12.33;;;;;;;;;;5004561;28;20212;-56
2022/04/05 08:42:59;;;;;;;15.80;13.57;;;;;;;;;;5007498;28;20189;-56
2022/04/05 08:45:26;;;;;;;13.93;12.57;;;;;;;;;;5001122;28;20229;-55
2022/04/05 08:47:59;;;;;;;13.43;12.23;;;;;;;;;;5001552;28;20228;-56
2022/04/05 08:50:26;;;;;;;13.17;11.83;;;;;;;;;;5009549;28;20259;-56
2022/04/05 08:52:54;;;;;;;13.03;11.83;;;;;;;;;;4996950;28;20204;-56
2022/04/05 08:55:20;;;;;;;13.70;12.37;;;;;;;;;;4998260;28;20193;-56
2022/04/05 08:57:46;;;;;;;13.50;12.30;;;;;;;;;;4991795;28;20217;-56
2022/04/05 09:00:12;;;;;;;13.70;12.40;;;;;;;;;;5001617;28;20189;-56
2022/04/05 09:02:38;;;;;;;13.97;12.67;;;;;;;;;;4996624;28;20421;-56
2022/04/05 09:05:04;;;;;;;14.20;12.90;;;;;;;;;;4997029;28;20316;-57
2022/04/05 09:07:31;;;;;;;12.93;11.80;;;;;;;;;;4996571;28;20275;-56
2022/04/05 09:10:09;;;;;;;12.97;11.87;;;;;;;;;;4995206;28;20213;-56
2022/04/05 09:12:42;;;;;;;13.27;12.07;;;;;;;;;;4992289;28;20311;-56
2022/04/05 09:15:18;;;;;;;14.13;12.83;;;;;;;;;;4990947;28;20194;-56
2022/04/05 09:17:44;;;;;;;14.50;13.00;;;;;;;;;;5001957;28;20189;-56
2022/04/05 09:20:11;;;;;;;14.97;13.53;;;;;;;;;;4996512;28;20206;-56
2022/04/05 09:22:37;;;;;;;14.67;13.17;;;;;;;;;;5001538;28;20193;-56
2022/04/05 09:25:04;;;;;;;14.27;12.73;;;;;;;;;;4996627;28;20543;-56
2022/04/05 09:27:42;;;;;;;14.67;13.27;;;;;;;;;;4998308;28;20229;-55
2022/04/05 09:30:11;;;;;;;13.87;12.70;;;;;;;;;;5005364;28;20215;-56
2022/04/05 09:32:37;;;;;;;14.10;12.60;;;;;;;;;;4996444;28;20198;-55
2022/04/05 09:35:04;;;;;;;12.20;11.00;;;;;;;;;;4994336;28;20673;-56
2022/04/05 09:37:30;;;;;;;11.77;10.60;;;;;;;;;;4997839;28;20186;-56
2022/04/05 09:40:14;;;;;;;12.00;10.83;;;;;;;;;;5001746;28;20770;-56
2022/04/05 09:43:14;;;;;;;12.00;11.00;;;;;;;;;;4995196;28;20220;-56
2022/04/05 09:45:58;;;;;;;11.87;10.77;;;;;;;;;;5006921;28;20597;-56
2022/04/05 09:48:24;;;;;;;12.27;11.17;;;;;;;;;;4994293;28;20221;-56
2022/04/05 09:51:01;;;;;;;13.00;11.80;;;;;;;;;;4994479;28;20193;-56
2022/04/05 09:53:30;;;;;;;13.53;12.37;;;;;;;;;;4993725;28;20560;-56
2022/04/05 09:56:22;;;;;;;13.27;12.03;;;;;;;;;;4991561;28;20197;-55
2022/04/05 09:59:02;;;;;;;12.27;11.27;;;;;;;;;;5001680;28;20201;-55
2022/04/05 10:01:28;;;;;;;11.57;10.47;;;;;;;;;;4999393;28;20189;-56
2022/04/05 10:04:02;;;;;;;11.20;10.10;;;;;;;;;;5001175;28;20203;-56
2022/04/05 10:06:30;;;;;;;10.53;9.53;;;;;;;;;;5001275;28;20227;-56
2022/04/05 10:08:56;;;;;;;10.53;9.43;;;;;;;;;;4998164;28;20712;-56
2022/04/05 10:11:23;;;;;;;10.17;9.10;;;;;;;;;;4997267;28;20190;-56
2022/04/05 10:13:49;;;;;;;10.23;9.33;;;;;;;;;;4999215;28;20190;-56
2022/04/05 10:16:15;;;;;;;9.87;8.87;;;;;;;;;;5002174;28;20839;-56
2022/04/05 10:18:41;;;;;;;9.67;8.53;;;;;;;;;;4999270;28;20591;-56
2022/04/05 10:21:07;;;;;;;8.90;8.10;;;;;;;;;;4998361;28;20571;-56
2022/04/05 10:23:34;;;;;;;8.77;8.07;;;;;;;;;;4995521;28;20628;-56
2022/04/05 10:26:00;;;;;;;8.50;7.70;;;;;;;;;;5002553;28;20189;-56
2022/04/05 10:28:28;;;;;;;8.40;7.50;;;;;;;;;;5005145;28;20285;-56
2022/04/05 10:31:13;;;;;;;8.10;7.00;;;;;;;;;;5014410;28;20193;-56
2022/04/05 10:33:48;;;;;;;7.63;7.00;;;;;;;;;;5004827;28;20193;-56
2022/04/05 10:36:15;;;;;;;7.40;6.73;;;;;;;;;;5005778;28;20186;-56
2022/04/05 10:38:41;;;;;;;6.93;6.43;;;;;;;;;;5020063;28;20196;-56
2022/04/05 10:41:14;;;;;;;6.53;5.90;;;;;;;;;;5008285;28;20754;-56
2022/04/05 10:43:40;;;;;;;7.07;6.37;;;;;;;;;;5006534;28;20254;-56
2022/04/05 10:46:06;;;;;;;6.67;6.07;;;;;;;;;;5012227;28;20192;-56
2022/04/05 10:48:32;;;;;;;7.70;6.33;;;;;;;;;;4997105;28;20651;-56
2022/04/05 10:51:01;;;;;;;7.03;6.43;;;;;;;;;;4997710;28;20192;-56
2022/04/05 10:53:31;;;;;;;7.20;6.30;;;;;;;;;;4998916;28;20190;-56
2022/04/05 10:56:04;;;;;;;6.63;6.03;;;;;;;;;;4994627;28;20189;-56
2022/04/05 10:58:30;;;;;;;6.50;5.73;;;;;;;;;;5001503;28;20188;-56
2022/04/05 11:01:14;;;;;;;7.43;6.73;;;;;;;;;;4992843;28;20194;-56
2022/04/05 11:03:40;;;;;;;6.27;5.53;;;;;;;;;;5000646;28;20193;-56
2022/04/05 11:06:06;;;;;;;6.37;5.67;;;;;;;;;;5001474;28;20240;-55
2022/04/05 11:08:32;;;;;;;6.50;6.00;;;;;;;;;;5002132;28;20709;-55
2022/04/05 11:11:02;;;;;;;6.23;5.73;;;;;;;;;;5006677;28;20189;-56
2022/04/05 11:13:32;;;;;;;7.93;5.97;;;;;;;;;;5015446;28;20186;-56
2022/04/05 11:15:58;;;;;;;6.77;6.17;;;;;;;;;;5016345;28;20193;-56
2022/04/05 11:18:25;;;;;;;6.20;5.70;;;;;;;;;;5009720;28;20186;-56
2022/04/05 11:20:51;;;;;;;6.27;5.60;;;;;;;;;;4999148;28;20244;-56
2022/04/05 11:23:18;;;;;;;6.13;5.53;;;;;;;;;;4996417;28;20240;-55
2022/04/05 11:25:44;;;;;;;7.10;6.20;;;;;;;;;;4998297;28;20825;-56
2022/04/05 11:28:21;;;;;;;6.97;6.37;;;;;;;;;;5004553;28;20725;-56
2022/04/05 11:31:06;;;;;;;6.43;5.90;;;;;;;;;;5005835;28;20383;-56
2022/04/05 11:33:36;;;;;;;6.63;6.13;;;;;;;;;;5009710;28;20208;-56
2022/04/05 11:36:09;;;;;;;6.57;6.07;;;;;;;;;;4998398;28;20196;-56
2022/04/05 11:38:35;;;;;;;7.43;6.10;;;;;;;;;;5008587;28;20201;-56
2022/04/05 11:41:11;;;;;;;6.27;5.77;;;;;;;;;;5007546;28;20194;-56
2022/04/05 11:43:43;;;;;;;6.13;5.67;;;;;;;;;;5005089;28;20212;-55
2022/04/05 11:46:11;;;;;;;6.50;5.93;;;;;;;;;;5005327;28;20205;-56
2022/04/05 11:48:41;;;;;;;6.20;5.70;;;;;;;;;;5012204;28;20708;-55
2022/04/05 11:51:09;;;;;;;6.33;5.73;;;;;;;;;;5007558;28;20204;-55
2022/04/05 11:53:35;;;;;;;6.10;5.60;;;;;;;;;;5004421;28;20670;-55
2022/04/05 11:56:06;;;;;;;6.10;5.60;;;;;;;;;;5012780;28;20497;-56
2022/04/05 11:58:34;;;;;;;5.53;5.03;;;;;;;;;;5008583;28;20193;-56
2022/04/05 12:01:02;;;;;;;6.43;5.37;;;;;;;;;;5002409;28;20654;-56
2022/04/05 12:03:28;;;;;;;5.70;5.10;;;;;;;;;;5007676;28;20193;-56
2022/04/05 12:05:55;;;;;;;6.37;5.77;;;;;;;;;;5002638;28;20639;-55
2022/04/05 12:08:21;;;;;;;6.07;5.67;;;;;;;;;;5003505;28;20668;-56
2022/04/05 12:10:47;;;;;;;6.10;5.60;;;;;;;;;;4997061;28;20219;-55
2022/04/05 12:13:13;;;;;;;6.20;5.60;;;;;;;;;;5002437;28;20201;-56
2022/04/05 12:15:39;;;;;;;5.97;5.47;;;;;;;;;;5000879;28;20225;-55
2022/04/05 12:18:19;;;;;;;5.33;4.93;;;;;;;;;;5017465;28;20186;-56
2022/04/05 12:21:06;;;;;;;5.20;4.80;;;;;;;;;;4995781;28;20696;-56
2022/04/05 12:23:34;;;;;;;5.73;5.10;;;;;;;;;;5003224;28;20507;-56
2022/04/05 12:26:12;;;;;;;5.37;4.97;;;;;;;;;;5000081;28;20602;-56
2022/04/05 12:28:39;;;;;;;5.40;4.80;;;;;;;;;;5001499;28;20629;-56
2022/04/05 12:31:19;;;;;;;5.10;4.60;;;;;;;;;;5005007;28;20559;-56
2022/04/05 12:34:05;;;;;;;5.03;4.63;;;;;;;;;;5013421;28;20216;-56
2022/04/05 12:36:43;;;;;;;5.37;4.97;;;;;;;;;;5005308;28;20189;-56
2022/04/05 12:39:20;;;;;;;5.10;4.70;;;;;;;;;;4998048;28;20189;-56
2022/04/05 12:41:47;;;;;;;5.93;5.43;;;;;;;;;;4988535;28;20189;-56
2022/04/05 12:44:14;;;;;;;6.47;5.07;;;;;;;;;;4982353;28;20209;-55
2022/04/05 12:46:44;;;;;;;5.60;5.10;;;;;;;;;;4984852;28;20205;-55
2022/04/05 12:49:14;;;;;;;7.77;5.50;;;;;;;;;;4989455;28;20213;-55
2022/04/05 12:51:40;;;;;;;5.70;5.20;;;;;;;;;;4994638;28;20199;-56
2022/04/05 12:54:06;;;;;;;5.40;5.00;;;;;;;;;;4988461;28;20189;-56
2022/04/05 12:56:36;;;;;;;5.97;5.10;;;;;;;;;;4990257;28;20283;-56
2022/04/05 12:59:07;;;;;;;5.60;5.00;;;;;;;;;;5002499;28;20726;-56
2022/04/05 13:01:33;;;;;;;5.27;4.80;;;;;;;;;;4997994;28;20247;-56
2022/04/05 13:04:01;;;;;;;5.10;4.60;;;;;;;;;;5006535;28;20285;-56
2022/04/05 13:06:27;;;;;;;5.60;5.00;;;;;;;;;;5001668;28;20320;-56
2022/04/05 13:09:03;;;;;;;5.07;4.53;;;;;;;;;;5001344;28;20218;-55
2022/04/05 13:11:30;;;;;;;5.27;4.77;;;;;;;;;;4995839;28;20899;-56
2022/04/05 13:14:02;;;;;;;4.63;4.23;;;;;;;;;;5002411;28;20213;-56
2022/04/05 13:16:29;;;;;;;5.30;4.80;;;;;;;;;;4998656;28;20232;-56
2022/04/05 13:19:05;;;;;;;5.00;4.60;;;;;;;;;;4998248;28;20221;-56
2022/04/05 13:21:33;;;;;;;5.33;4.83;;;;;;;;;;4995106;28;20579;-56
2022/04/05 13:24:00;;;;;;;5.03;4.53;;;;;;;;;;4997233;28;20196;-56
2022/04/05 13:26:26;;;;;;;5.13;4.73;;;;;;;;;;4990326;28;20268;-55
2022/04/05 13:29:07;;;;;;;5.30;4.90;;;;;;;;;;5000862;28;20225;-56
2022/04/05 13:31:33;;;;;;;5.60;5.10;;;;;;;;;;5005140;28;20627;-56
2022/04/05 13:34:00;;;;;;;6.70;5.97;;;;;;;;;;5004143;28;20276;-56
2022/04/05 13:36:26;;;;;;;5.60;5.10;;;;;;;;;;4991404;28;20260;-56
2022/04/05 13:38:52;;;;;;;5.63;5.23;;;;;;;;;;4988673;28;20193;-56
2022/04/05 13:41:18;;;;;;;7.60;5.73;;;;;;;;;;4994993;28;20312;-56
2022/04/05 13:43:44;;;;;;;5.37;5.00;;;;;;;;;;4990892;28;20284;-56
2022/04/05 13:46:10;;;;;;;6.17;5.67;;;;;;;;;;4993508;28;20658;-56
2022/04/05 13:48:36;;;;;;;5.60;5.20;;;;;;;;;;4997212;28;20203;-56
2022/04/05 13:51:02;;;;;;;5.93;5.43;;;;;;;;;;4995403;28;20276;-56
2022/04/05 13:53:28;;;;;;;6.00;5.50;;;;;;;;;;4997582;28;20218;-56
2022/04/05 13:55:54;;;;;;;6.50;5.90;;;;;;;;;;5001211;28;20280;-56
2022/04/05 13:58:20;;;;;;;6.80;6.10;;;;;;;;;;5004093;28;20215;-56
2022/04/05 14:00:46;;;;;;;6.80;6.30;;;;;;;;;;4997686;28;21612;-56
2022/04/05 14:03:11;;;;;;;6.83;6.20;;;;;;;;;;4994274;28;20784;-56
2022/04/05 14:05:37;;;;;;;7.33;6.77;;;;;;;;;;5003080;28;20710;-56
2022/04/05 14:08:05;;;;;;;7.40;6.80;;;;;;;;;;4997456;28;20576;-56
2022/04/05 14:10:31;;;;;;;7.33;6.73;;;;;;;;;;4984329;28;20696;-56
2022/04/05 14:12:57;;;;;;;7.00;6.40;;;;;;;;;;5002393;28;20279;-56
2022/04/05 14:15:23;;;;;;;7.60;6.90;;;;;;;;;;5003411;28;20231;-56
2022/04/05 14:17:49;;;;;;;7.03;6.43;;;;;;;;;;5004580;28;20219;-56
2022/04/05 14:20:15;;;;;;;7.07;6.47;;;;;;;;;;5003978;28;20192;-56
2022/04/05 14:22:42;;;;;;;6.97;6.30;;;;;;;;;;5000827;28;20646;-56
2022/04/05 14:25:09;;;;;;;6.70;6.10;;;;;;;;;;5005736;28;20263;-56
2022/04/05 14:27:34;;;;;;;6.93;6.33;;;;;;;;;;5004691;28;20331;-56